Relevés horaires Titlis (Suisse)


Relevés horaires à Titlis - Samedi 20 Mars 2021
Heure UTC1 Température [°C] Vent [km/h] Hum. [%] Pres.4 [hPa] Visi. [Km] Nébu. [octa] Préc.5 [mm] Cond.
2m. Res. Ros. Dir.2 Vit. Moy. Raf.3
23:00 -14.0 -27.4 -14.9 NE 51.9 -- 124.1 93 700(0.4/3h) -- -- -- --
22:00 -14.5 -29.4 -16.2 NE 66.7 -- 90.7 87 700(0.8/3h) -- -- -- --
21:00 -15.1 -30.1 -21.0 NE 64.8 -- 92.6 60 700(0.7/3h) -- -- -- --
20:00 -15.8 -30.9 -26.7 NE 63.0 -- 92.6 38 700(0.9/3h) -- -- -- --
19:00 -16.0 -30.7 -32.4 NE 57.4 -- 87.0 23 700(0.5/3h) -- -- -- --
18:00 -16.9 -31.8 -31.8 NE 55.6 -- 83.3 26 700(0.3/3h) -- -- -- --
17:00 -16.5 -31.7 -33.0 NE 61.1 -- 81.5 22 700(0.1/3h) -- -- -- --
16:00 -16.3 -31.4 -31.2 NE 61.1 -- 75.9 26 700(0.4/3h) -- -- -- --
15:00 -16.2 -30.8 -31.0 NE 55.6 -- 83.3 26 700(0.3/3h) -- -- -- --
14:00 -16.1 -29 -32.1 NE 40.7 -- 74.1 24 700(0.3/3h) -- -- -- --
13:00 -15.7 -29.3 -31.4 NE 48.2 -- 83.3 24 700(0.5/3h) -- -- -- --
12:00 -16.4 -29.2 -28.6 NE 38.9 -- 85.2 34 700(1.1/3h) -- -- -- --
11:00 -16.5 -31 -29.4 NE 53.7 -- 77.8 32 700(1.3/3h) -- -- -- --
10:00 -17.9 -33.7 -30.0 NE 61.1 -- 85.2 34 700(1.0/3h) -- -- -- --
09:00 -18.8 -33.6 -26.6 NNE 48.2 -- 70.4 50 700(0.8/3h) -- -- -- --
08:00 -19.4 -33.2 -26.7 NNE 38.9 -- 61.1 52 700(0.5/3h) -- -- -- --
07:00 -20.8 -32 -22.4 N 22.2 -- 37.0 87 700(0.2/3h) -- -- -- --
06:00 -20.7 -33.4 -21.4 N 29.6 -- 37.0 94 700(-0.1/3h) -- -- -- --
05:00 -20.1 -31.6 -20.3 N 24.1 -- 31.5 98 700(-0.4/3h) -- -- -- --
04:00 -19.2 -19.2 -19.2 NNO 3.7 -- 25.9 100 700(-0.5/3h) -- -- -- --
03:00 -18.6 -23.1 -18.6 NNO 5.6 -- 25.9 100 700(-0.5/3h) -- -- -- --
02:00 -18.0 -22.4 -18.2 NNO 5.6 -- 22.2 98 700(-0.3/3h) -- -- -- --
01:00 -18.1 -18.1 -20.1 NNO 3.7 -- 14.8 84 700(0.1/3h) -- -- -- --
00:00 -18.7 -24.4 -18.9 N 7.4 -- 33.3 98 700(0.3/3h) -- -- -- --

1 Coordinated Universal Time. Actuellement il est 14:00 locale et 12:00 UTC.

2 Le vent souffle depuis la direction indiquée vers la direction oposée.

3 Les rafales max. sont disponible 40 min après l'heure du relevé.

4 Pour les stations d'altitude (plus de 600m) le géopotentiel du niveau le plus proche de la pression obligatoire est indiqué.

5 Les stations disposant d'un diffuseur peuvent indiquer "trace". Cela signifie que des précipitations ont touchés le sol mais que la quantité est inférieure à 0.1 mm.

Copyright

Les données affichées sur cette page sont la propriété exclusive de Météo Suisse.

Récapitulatif de la journée
Température [°C] Vent [km/h] Ensoleillement4 [h] Precipitations totale5 [mm] Pression [Hpa]
Min1 Max.2 Moy.3 Max. Min Max.
-20.5 -15.6 0 124.1 10 h 12 min 0 700.0 700.0

1 Température minimale relevée entre 18:00 UTC la veille et 18:00 UTC le jour donné.

2 Température maximale relevée entre 06:00 UTC le jour donné et 06:00 UTC le lendemain.

3 Vent moyen de la journée basé sur les relevés horaires.

4 Ensoleillement en heures relevé entre 06:00 UTC la veille et 06:00 UTC le jour donné.

5 Précipitations totales tombées entre 06:00 UTC la jour donné et 06:00 UTC le lendemain.

Graphiques horaires